Time;durP1;ratioP1;P1;durP2;ratioP2;P2;SDS_P1;SDS_P2;PMS_P1;PMS_P2;Temp;Humidity;BMP_temperature;BMP_pressure;BME280_temperature;BME280_humidity;BME280_pressure;Samples;Min_cycle;Max_cycle;Signal;HPM_P1;HPM_P2
2021/01/01 00:01:55;;;;;;;45.67;33.63;;;3.50;99.90;;;;;;5053122;28;20163;-72
2021/01/01 00:04:21;;;;;;;50.53;36.60;;;3.50;99.90;;;;;;5035060;28;20171;-72
2021/01/01 00:06:48;;;;;;;65.57;44.47;;;3.50;99.90;;;;;;5053026;28;20171;-72
2021/01/01 00:09:15;;;;;;;60.47;45.00;;;3.50;99.90;;;;;;5052869;28;20848;-72
2021/01/01 00:11:40;;;;;;;62.73;43.10;;;3.50;99.90;;;;;;5052901;28;20449;-71
2021/01/01 00:14:07;;;;;;;64.83;48.70;;;3.50;99.90;;;;;;5052848;28;20916;-71
2021/01/01 00:16:33;;;;;;;64.57;48.20;;;3.50;99.90;;;;;;5052441;28;20190;-72
2021/01/01 00:18:58;;;;;;;67.87;44.00;;;3.50;99.90;;;;;;5052833;28;20420;-71
2021/01/01 00:21:29;;;;;;;66.77;44.27;;;3.50;99.90;;;;;;5052855;28;20488;-71
2021/01/01 00:23:54;;;;;;;60.47;45.20;;;3.50;99.90;;;;;;5052384;28;20198;-71
2021/01/01 00:26:20;;;;;;;61.20;42.60;;;3.50;99.90;;;;;;5052434;28;20401;-71
2021/01/01 00:28:46;;;;;;;66.83;44.40;;;3.40;99.90;;;;;;5052700;28;20475;-71
2021/01/01 00:31:20;;;;;;;73.87;52.47;;;3.40;99.90;;;;;;5052783;28;20225;-72
2021/01/01 00:33:45;;;;;;;78.40;55.00;;;3.30;99.90;;;;;;5052703;28;20451;-71
2021/01/01 00:36:12;;;;;;;99.33;58.73;;;3.30;99.90;;;;;;5052544;28;20909;-72
2021/01/01 00:38:38;;;;;;;88.67;55.37;;;3.30;99.90;;;;;;5052775;28;20167;-72
2021/01/01 00:41:04;;;;;;;96.53;60.43;;;3.30;99.90;;;;;;5052839;28;20495;-72
2021/01/01 00:43:29;;;;;;;86.17;55.80;;;3.30;99.90;;;;;;5052492;28;20420;-71
2021/01/01 00:45:55;;;;;;;80.33;50.50;;;3.30;99.90;;;;;;5053133;28;20186;-71
2021/01/01 00:48:21;;;;;;;84.03;54.47;;;3.30;99.90;;;;;;5052740;28;20202;-71
2021/01/01 00:50:46;;;;;;;74.40;50.10;;;3.30;99.90;;;;;;5052262;28;20250;-71
2021/01/01 00:53:12;;;;;;;77.50;51.10;;;3.30;99.90;;;;;;5052103;28;20467;-72
2021/01/01 00:55:37;;;;;;;80.13;51.60;;;3.30;99.90;;;;;;5052935;28;20175;-72
2021/01/01 00:58:03;;;;;;;73.27;50.70;;;3.30;99.90;;;;;;5052285;28;20617;-72
2021/01/01 01:00:28;;;;;;;77.63;53.30;;;3.40;99.90;;;;;;5052511;28;20194;-71
2021/01/01 01:02:54;;;;;;;83.33;53.13;;;3.40;99.90;;;;;;5035047;28;20177;-72
2021/01/01 01:05:19;;;;;;;75.33;51.20;;;3.30;99.90;;;;;;5053231;28;20249;-72
2021/01/01 01:07:45;;;;;;;71.40;51.90;;;3.30;99.90;;;;;;5052740;28;20242;-71
2021/01/01 01:10:12;;;;;;;69.73;49.90;;;3.30;99.90;;;;;;5053115;28;20198;-72
2021/01/01 01:12:38;;;;;;;64.87;47.87;;;3.40;99.90;;;;;;5053024;28;20178;-71
2021/01/01 01:15:05;;;;;;;82.60;56.17;;;3.30;99.90;;;;;;5052703;28;20445;-72
2021/01/01 01:17:30;;;;;;;71.07;47.07;;;3.70;99.90;;;;;;5052309;28;20408;-73
2021/01/01 01:19:56;;;;;;;61.90;44.23;;;3.50;99.90;;;;;;5052641;28;20771;-71
2021/01/01 01:22:21;;;;;;;77.40;49.77;;;3.40;99.90;;;;;;5055125;28;20273;-71
2021/01/01 01:24:46;;;;;;;65.73;45.23;;;3.30;99.90;;;;;;5054728;28;20171;-72
2021/01/01 01:27:12;;;;;;;69.90;47.50;;;3.30;99.90;;;;;;5053835;28;20179;-71
2021/01/01 01:29:37;;;;;;;73.07;49.13;;;3.30;99.90;;;;;;5052112;28;20226;-72
2021/01/01 01:32:03;;;;;;;79.70;51.37;;;3.30;99.90;;;;;;5052274;28;20209;-71
2021/01/01 01:34:28;;;;;;;82.30;51.37;;;3.30;99.90;;;;;;5051709;28;20179;-71
2021/01/01 01:36:54;;;;;;;73.10;48.67;;;3.20;99.90;;;;;;5054302;28;20163;-70
2021/01/01 01:39:19;;;;;;;77.43;51.90;;;3.20;99.90;;;;;;5055732;28;20229;-71
2021/01/01 01:41:45;;;;;;;82.40;50.37;;;3.20;99.90;;;;;;5055788;28;20193;-71
2021/01/01 01:44:10;;;;;;;74.00;48.60;;;3.30;99.90;;;;;;5055684;28;20182;-71
2021/01/01 01:46:41;;;;;;;74.00;51.23;;;3.20;99.90;;;;;;5055626;28;20163;-70
2021/01/01 01:49:10;;;;;;;68.97;47.47;;;3.20;99.90;;;;;;5055504;28;20167;-71
2021/01/01 01:51:36;;;;;;;67.33;45.70;;;3.20;99.90;;;;;;5055210;28;20869;-71
2021/01/01 01:54:02;;;;;;;61.63;43.53;;;3.20;99.90;;;;;;5055211;28;20409;-71
2021/01/01 01:56:27;;;;;;;74.00;49.10;;;3.20;99.90;;;;;;5054786;28;20762;-71
2021/01/01 01:58:53;;;;;;;64.83;45.60;;;3.20;99.90;;;;;;5055264;28;20463;-71
2021/01/01 02:01:19;;;;;;;67.50;47.73;;;3.10;99.90;;;;;;5055937;28;20225;-71
2021/01/01 02:03:45;;;;;;;70.73;46.67;;;3.10;99.90;;;;;;5055022;28;20175;-71
2021/01/01 02:06:10;;;;;;;72.67;45.60;;;3.10;99.90;;;;;;5055644;28;20893;-71
2021/01/01 02:08:36;;;;;;;61.80;41.93;;;3.10;99.90;;;;;;5055343;28;20206;-71
2021/01/01 02:11:03;;;;;;;68.10;41.20;;;3.20;99.90;;;;;;5055608;28;20202;-71
2021/01/01 02:13:29;;;;;;;57.07;40.47;;;3.10;99.90;;;;;;5055804;28;20159;-70
2021/01/01 02:15:55;;;;;;;58.23;40.80;;;3.10;99.90;;;;;;5055332;28;20492;-70
2021/01/01 02:18:38;;;;;;;59.40;39.23;;;3.00;99.90;;;;;;5055635;28;20448;-71
2021/01/01 02:21:05;;;;;;;59.47;37.93;;;3.10;99.90;;;;;;5055785;28;20273;-70
2021/01/01 02:23:31;;;;;;;54.10;36.80;;;3.10;99.90;;;;;;5055169;28;20412;-70
2021/01/01 02:25:57;;;;;;;57.17;40.17;;;3.10;99.90;;;;;;5055608;28;20540;-70
2021/01/01 02:28:23;;;;;;;56.00;40.07;;;3.00;99.90;;;;;;5055598;28;20830;-71
2021/01/01 02:30:48;;;;;;;55.50;37.93;;;3.00;99.90;;;;;;5055184;28;20461;-70
2021/01/01 02:33:14;;;;;;;55.47;37.67;;;3.00;99.90;;;;;;5055016;28;20440;-70
2021/01/01 02:35:39;;;;;;;49.13;35.60;;;3.00;99.90;;;;;;5055641;28;20416;-71
2021/01/01 02:38:05;;;;;;;51.10;36.00;;;3.00;99.90;;;;;;5055260;28;20697;-71
2021/01/01 02:40:30;;;;;;;52.73;36.13;;;3.10;99.90;;;;;;5055176;28;20198;-71
2021/01/01 02:42:56;;;;;;;51.97;36.17;;;3.10;99.90;;;;;;5055383;28;20225;-71
2021/01/01 02:45:21;;;;;;;53.10;35.27;;;3.10;99.90;;;;;;5055112;28;20175;-70
2021/01/01 02:47:47;;;;;;;49.17;32.20;;;3.00;99.90;;;;;;5055136;28;20625;-72
2021/01/01 02:50:12;;;;;;;45.60;32.60;;;3.10;99.90;;;;;;5055084;28;20221;-72
2021/01/01 02:52:39;;;;;;;53.07;34.87;;;3.00;99.90;;;;;;5055286;28;20639;-71
2021/01/01 02:55:05;;;;;;;49.07;33.70;;;3.10;99.90;;;;;;5055178;28;20166;-71
2021/01/01 02:57:31;;;;;;;47.10;33.37;;;3.10;99.90;;;;;;5054019;28;20405;-71
2021/01/01 02:59:56;;;;;;;47.77;33.63;;;3.10;99.90;;;;;;5054014;28;20417;-71
2021/01/01 03:02:21;;;;;;;44.03;30.33;;;3.10;99.90;;;;;;5053697;28;20172;-72
2021/01/01 03:04:47;;;;;;;41.77;31.33;;;3.00;99.90;;;;;;5054137;28;20278;-71
2021/01/01 03:07:12;;;;;;;45.40;32.27;;;3.00;99.90;;;;;;5054543;28;20308;-71
2021/01/01 03:09:38;;;;;;;46.73;32.23;;;3.00;99.90;;;;;;5054273;28;20187;-71
2021/01/01 03:12:04;;;;;;;42.20;29.07;;;3.10;99.90;;;;;;5054502;28;20203;-71
2021/01/01 03:14:29;;;;;;;41.80;29.47;;;3.10;99.90;;;;;;5054543;28;20233;-71
2021/01/01 03:16:55;;;;;;;39.60;28.83;;;3.10;99.90;;;;;;5054113;28;20264;-72
2021/01/01 03:19:20;;;;;;;41.17;28.03;;;3.10;99.90;;;;;;5053277;28;20183;-72
2021/01/01 03:21:45;;;;;;;45.10;27.67;;;3.10;99.90;;;;;;5053369;28;20685;-71
2021/01/01 03:24:11;;;;;;;43.60;29.70;;;3.10;99.90;;;;;;5053396;28;20245;-72
2021/01/01 03:26:36;;;;;;;34.50;24.37;;;3.20;99.90;;;;;;5053270;28;20202;-71
2021/01/01 03:29:02;;;;;;;34.87;25.47;;;3.20;99.90;;;;;;5053459;28;20175;-72
2021/01/01 03:31:27;;;;;;;29.13;23.47;;;3.10;99.90;;;;;;5054145;28;20195;-71
2021/01/01 03:33:53;;;;;;;36.60;23.70;;;3.10;99.90;;;;;;5053751;28;20178;-72
2021/01/01 03:36:18;;;;;;;34.03;23.03;;;3.10;99.90;;;;;;5053896;28;20159;-71
2021/01/01 03:38:46;;;;;;;35.63;23.43;;;3.10;99.90;;;;;;5053768;28;20163;-71
2021/01/01 03:41:12;;;;;;;32.27;21.87;;;3.20;99.90;;;;;;5053802;28;20187;-71
2021/01/01 03:43:37;;;;;;;30.40;22.77;;;3.10;99.90;;;;;;5035766;28;20556;-71
2021/01/01 03:46:03;;;;;;;29.20;22.13;;;3.20;99.90;;;;;;5053565;28;20194;-71
2021/01/01 03:48:28;;;;;;;30.37;24.70;;;3.20;99.90;;;;;;5053606;28;20469;-71
2021/01/01 03:50:54;;;;;;;31.07;21.97;;;3.20;99.90;;;;;;5053653;28;20282;-71
2021/01/01 03:53:19;;;;;;;28.80;22.70;;;3.20;99.90;;;;;;5053846;28;20163;-71
2021/01/01 03:55:46;;;;;;;31.23;21.50;;;3.20;99.90;;;;;;5053829;28;20171;-71
2021/01/01 03:58:11;;;;;;;30.97;23.10;;;3.20;99.90;;;;;;5053703;28;20159;-71
2021/01/01 04:00:36;;;;;;;31.47;21.83;;;3.20;99.90;;;;;;5053915;28;20559;-71
2021/01/01 04:03:02;;;;;;;32.50;22.40;;;3.20;99.90;;;;;;5053151;28;20166;-70
2021/01/01 04:05:27;;;;;;;26.97;20.67;;;3.20;99.90;;;;;;5052419;28;20175;-70
2021/01/01 04:07:53;;;;;;;27.17;20.07;;;3.20;99.90;;;;;;5053372;28;20179;-72
2021/01/01 04:10:18;;;;;;;24.80;19.87;;;3.20;99.90;;;;;;5052614;28;20274;-72
2021/01/01 04:12:44;;;;;;;35.07;23.70;;;3.20;99.90;;;;;;5053335;28;20159;-70
2021/01/01 04:15:10;;;;;;;37.30;23.57;;;3.30;99.90;;;;;;5053215;28;20171;-71
2021/01/01 04:17:35;;;;;;;29.03;22.93;;;3.20;99.90;;;;;;5053096;28;20202;-71
2021/01/01 04:20:01;;;;;;;33.50;21.20;;;3.20;99.90;;;;;;5034977;28;20687;-71
2021/01/01 04:22:26;;;;;;;30.20;23.00;;;3.20;99.90;;;;;;5053131;28;20175;-71
2021/01/01 04:24:52;;;;;;;26.07;21.83;;;3.20;99.90;;;;;;5053269;28;20527;-72
2021/01/01 04:27:17;;;;;;;32.53;23.47;;;3.20;99.90;;;;;;5053028;28;20471;-71
2021/01/01 04:29:42;;;;;;;35.33;25.33;;;3.10;99.90;;;;;;5052955;28;20194;-71
2021/01/01 04:32:08;;;;;;;27.90;20.53;;;3.20;99.90;;;;;;5052709;28;20198;-70
2021/01/01 04:34:33;;;;;;;32.17;21.60;;;3.20;99.90;;;;;;5053349;28;20683;-71
2021/01/01 04:36:59;;;;;;;31.40;21.20;;;3.20;99.90;;;;;;5052636;28;20246;-71
2021/01/01 04:39:24;;;;;;;29.07;21.67;;;3.20;99.90;;;;;;5053060;28;20686;-71
2021/01/01 04:41:54;;;;;;;28.73;20.70;;;3.20;99.90;;;;;;5053285;28;20163;-71
2021/01/01 04:44:22;;;;;;;29.47;22.00;;;3.20;99.90;;;;;;5053277;28;20258;-71
2021/01/01 04:46:49;;;;;;;31.07;20.90;;;3.20;99.90;;;;;;5052909;28;20781;-71
2021/01/01 04:49:15;;;;;;;25.40;21.30;;;3.20;99.90;;;;;;5052810;28;20428;-71
2021/01/01 04:51:41;;;;;;;29.50;19.47;;;3.20;99.90;;;;;;5052229;28;20547;-71
2021/01/01 04:54:09;;;;;;;23.67;17.77;;;3.10;99.90;;;;;;5051807;28;20213;-72
2021/01/01 04:56:47;;;;;;;23.77;18.73;;;3.10;99.90;;;;;;5051996;28;20163;-71
2021/01/01 04:59:15;;;;;;;21.40;18.10;;;3.20;99.90;;;;;;5052542;28;20429;-71
2021/01/01 05:01:41;;;;;;;27.60;18.57;;;3.20;99.90;;;;;;5052401;28;20809;-71
2021/01/01 05:04:07;;;;;;;23.13;17.67;;;3.20;99.90;;;;;;5052041;28;20439;-70
2021/01/01 05:06:35;;;;;;;26.37;19.63;;;3.20;99.90;;;;;;5052750;28;20413;-71
2021/01/01 05:09:01;;;;;;;24.83;19.50;;;3.20;99.90;;;;;;5052356;28;20159;-71
2021/01/01 05:11:27;;;;;;;25.90;19.30;;;3.10;99.90;;;;;;5054559;28;20445;-71
2021/01/01 05:13:59;;;;;;;25.20;18.87;;;3.20;99.90;;;;;;5056750;28;20425;-71
2021/01/01 05:16:25;;;;;;;27.40;19.10;;;3.10;99.90;;;;;;5056754;28;20167;-71
2021/01/01 05:18:52;;;;;;;25.47;18.70;;;3.10;99.90;;;;;;5056417;28;20766;-71
2021/01/01 05:21:30;;;;;;;27.53;19.23;;;3.20;99.90;;;;;;5057257;28;20178;-70
2021/01/01 05:23:56;;;;;;;27.70;20.00;;;3.10;99.90;;;;;;5055877;28;20421;-71
2021/01/01 05:26:26;;;;;;;26.90;18.90;;;3.20;99.90;;;;;;5055347;28;20841;-70
2021/01/01 05:29:06;;;;;;;27.70;18.63;;;3.10;99.90;;;;;;5056134;28;20409;-72
2021/01/01 05:31:39;;;;;;;27.47;19.70;;;3.00;99.90;;;;;;5057524;28;20871;-71
2021/01/01 05:34:09;;;;;;;32.47;20.40;;;3.00;99.90;;;;;;5057376;28;20425;-70
2021/01/01 05:36:40;;;;;;;26.03;19.83;;;3.00;99.90;;;;;;5056257;28;20416;-71
2021/01/01 05:39:22;;;;;;;29.10;20.67;;;3.00;99.90;;;;;;5055421;28;20825;-71
2021/01/01 05:41:49;;;;;;;30.37;20.60;;;3.10;99.90;;;;;;5055192;28;20453;-71
2021/01/01 05:44:32;;;;;;;30.90;20.57;;;3.10;99.90;;;;;;5055350;28;20413;-71
2021/01/01 05:47:06;;;;;;;31.50;21.23;;;3.10;99.90;;;;;;5055890;28;20959;-71
2021/01/01 05:49:37;;;;;;;33.30;21.30;;;3.10;99.90;;;;;;5056276;28;20424;-71
2021/01/01 05:52:07;;;;;;;30.40;20.77;;;3.10;99.90;;;;;;5056577;28;20453;-70
2021/01/01 05:54:47;;;;;;;27.17;20.17;;;3.10;99.90;;;;;;5055954;28;20437;-71
2021/01/01 05:57:14;;;;;;;28.93;21.33;;;3.10;99.90;;;;;;5056101;28;20405;-71
2021/01/01 05:59:49;;;;;;;28.60;20.33;;;3.10;99.90;;;;;;5055540;28;20455;-71
2021/01/01 06:02:15;;;;;;;28.50;22.70;;;3.00;99.90;;;;;;5055928;28;20469;-71
2021/01/01 06:04:41;;;;;;;25.93;19.87;;;3.00;99.90;;;;;;5055893;28;20421;-71
2021/01/01 06:07:09;;;;;;;26.23;20.77;;;3.00;99.90;;;;;;5055343;28;20409;-71
2021/01/01 06:09:36;;;;;;;27.50;21.20;;;3.00;99.90;;;;;;5055406;28;20436;-71
2021/01/01 06:12:10;;;;;;;25.33;20.00;;;3.00;99.90;;;;;;5055565;28;20483;-71
2021/01/01 06:14:45;;;;;;;30.20;22.27;;;3.00;99.90;;;;;;5055498;28;20409;-71
2021/01/01 06:17:11;;;;;;;27.00;20.00;;;3.00;99.90;;;;;;5055467;28;20413;-71
2021/01/01 06:19:59;;;;;;;29.83;22.33;;;3.00;99.90;;;;;;5055236;28;20823;-71
2021/01/01 06:22:29;;;;;;;33.67;21.47;;;2.90;99.90;;;;;;5053096;28;20163;-71
2021/01/01 06:25:03;;;;;;;33.30;22.67;;;2.90;99.90;;;;;;5054814;28;20402;-72
2021/01/01 06:27:30;;;;;;;31.30;21.70;;;2.90;99.90;;;;;;5054909;28;20501;-72
2021/01/01 06:30:11;;;;;;;27.73;20.80;;;3.00;99.90;;;;;;5055445;28;20933;-71
2021/01/01 06:32:37;;;;;;;27.20;19.90;;;2.90;99.90;;;;;;5054732;28;20417;-71
2021/01/01 06:35:15;;;;;;;27.80;18.63;;;2.90;99.90;;;;;;5054692;28;20406;-71
2021/01/01 06:37:43;;;;;;;25.53;20.10;;;2.90;99.90;;;;;;5054381;28;20397;-71
2021/01/01 06:40:20;;;;;;;29.87;19.37;;;2.80;99.90;;;;;;5054620;28;20419;-71
2021/01/01 06:42:55;;;;;;;22.90;19.27;;;2.80;99.90;;;;;;5054863;28;21092;-71
2021/01/01 06:45:38;;;;;;;23.13;19.73;;;2.80;99.90;;;;;;5054789;28;20432;-71
2021/01/01 06:48:09;;;;;;;25.40;20.13;;;2.70;99.90;;;;;;5054731;28;20430;-71
2021/01/01 06:50:39;;;;;;;28.47;19.33;;;2.70;99.90;;;;;;5055199;28;20458;-71
2021/01/01 06:53:07;;;;;;;28.87;19.57;;;2.70;99.90;;;;;;5037191;28;20409;-71
2021/01/01 06:55:35;;;;;;;33.13;20.20;;;2.70;99.90;;;;;;5054236;28;20496;-71
2021/01/01 06:58:00;;;;;;;28.90;20.93;;;2.60;99.90;;;;;;5054555;28;20761;-71
2021/01/01 07:00:44;;;;;;;30.27;20.47;;;2.70;99.90;;;;;;5054595;28;20504;-70
2021/01/01 07:03:33;;;;;;;32.33;21.63;;;2.60;99.90;;;;;;5054447;28;20267;-71
2021/01/01 07:06:01;;;;;;;25.77;18.60;;;2.60;99.90;;;;;;5054577;28;20416;-70
2021/01/01 07:08:39;;;;;;;31.30;21.60;;;2.50;99.90;;;;;;5054674;28;20980;-71
2021/01/01 07:11:05;;;;;;;35.53;22.10;;;2.60;99.90;;;;;;5054278;28;20456;-71
2021/01/01 07:14:01;;;;;;;33.03;22.20;;;2.50;99.90;;;;;;5054207;28;20740;-71
2021/01/01 07:16:33;;;;;;;25.50;20.60;;;2.40;99.90;;;;;;5054145;28;20946;-70
2021/01/01 07:18:59;;;;;;;31.57;21.27;;;2.30;99.90;;;;;;5036568;28;20756;-71
2021/01/01 07:21:24;;;;;;;28.27;19.90;;;2.30;99.90;;;;;;5054156;28;20412;-71
2021/01/01 07:23:49;;;;;;;28.97;20.67;;;2.20;99.90;;;;;;5054190;28;20171;-71
2021/01/01 07:26:16;;;;;;;30.17;20.50;;;2.30;99.90;;;;;;5054607;28;20167;-71
2021/01/01 07:28:45;;;;;;;31.37;21.40;;;2.30;99.90;;;;;;5054178;28;20171;-71
2021/01/01 07:31:18;;;;;;;34.77;22.40;;;2.20;99.90;;;;;;5054101;28;20460;-71
2021/01/01 07:33:44;;;;;;;30.33;22.10;;;2.30;99.90;;;;;;5054447;28;20449;-71
2021/01/01 07:36:11;;;;;;;31.93;22.97;;;2.40;99.90;;;;;;5054362;28;20401;-71
2021/01/01 07:38:38;;;;;;;34.80;20.00;;;2.30;99.90;;;;;;5054108;28;20662;-73
2021/01/01 07:41:05;;;;;;;34.07;21.43;;;2.30;99.90;;;;;;5053692;28;20445;-71
2021/01/01 07:43:31;;;;;;;27.77;20.80;;;2.30;99.90;;;;;;5053476;28;20435;-72
2021/01/01 07:45:58;;;;;;;36.70;23.73;;;2.30;99.90;;;;;;5053545;28;20414;-71
2021/01/01 07:48:25;;;;;;;28.87;21.80;;;2.30;99.90;;;;;;5053170;28;20409;-72
2021/01/01 07:50:55;;;;;;;33.87;20.50;;;2.40;99.90;;;;;;5052574;28;20453;-72
2021/01/01 07:53:20;;;;;;;31.07;21.83;;;2.30;99.90;;;;;;5052880;28;20456;-72
2021/01/01 07:55:46;;;;;;;31.87;21.70;;;2.30;99.90;;;;;;5052939;28;20410;-72
2021/01/01 07:58:13;;;;;;;33.33;23.13;;;2.30;99.90;;;;;;5052873;28;20174;-71
2021/01/01 08:00:44;;;;;;;32.97;21.50;;;2.30;99.90;;;;;;5053567;28;20278;-72
2021/01/01 08:03:10;;;;;;;34.63;22.93;;;2.50;99.90;;;;;;5053574;28;20401;-72
2021/01/01 08:05:36;;;;;;;33.17;23.13;;;2.50;99.90;;;;;;5053849;28;20406;-72
2021/01/01 08:08:15;;;;;;;26.83;20.90;;;2.50;99.90;;;;;;5053519;28;20435;-72
2021/01/01 08:10:43;;;;;;;31.40;21.90;;;2.50;99.90;;;;;;5053668;28;20988;-72
2021/01/01 08:13:34;;;;;;;25.37;21.13;;;2.50;99.90;;;;;;5053759;28;20406;-72
2021/01/01 08:16:14;;;;;;;28.83;21.10;;;2.50;99.90;;;;;;5053770;28;20441;-71
2021/01/01 08:18:40;;;;;;;30.67;22.80;;;2.50;99.90;;;;;;5053733;28;20410;-72
2021/01/01 08:21:06;;;;;;;30.63;21.23;;;2.50;99.90;;;;;;5053534;28;20428;-71
2021/01/01 08:23:50;;;;;;;35.33;21.90;;;2.40;99.90;;;;;;5053396;28;20405;-72
2021/01/01 08:26:16;;;;;;;31.80;23.30;;;2.50;99.90;;;;;;5054040;28;20417;-72
2021/01/01 08:28:43;;;;;;;39.90;23.27;;;2.50;99.90;;;;;;5053147;28;20825;-71
2021/01/01 08:31:10;;;;;;;30.77;20.10;;;2.60;99.90;;;;;;5053314;28;20499;-71
2021/01/01 08:33:40;;;;;;;32.70;20.97;;;2.60;99.90;;;;;;5053258;28;20825;-72
2021/01/01 08:36:08;;;;;;;37.10;22.97;;;2.70;99.90;;;;;;5053608;28;20398;-72
2021/01/01 08:38:35;;;;;;;31.17;21.67;;;2.70;99.90;;;;;;5053074;28;20420;-71
2021/01/01 08:41:01;;;;;;;29.87;23.27;;;2.70;99.90;;;;;;5053030;28;20937;-72
2021/01/01 08:43:28;;;;;;;29.40;21.70;;;2.70;99.90;;;;;;5053235;28;20441;-72
2021/01/01 08:45:53;;;;;;;30.23;19.47;;;2.80;99.90;;;;;;5052350;28;20466;-72
2021/01/01 08:48:19;;;;;;;30.53;21.33;;;2.70;99.90;;;;;;5052999;28;20417;-71
2021/01/01 08:50:52;;;;;;;25.77;21.90;;;2.80;99.90;;;;;;5052792;28;20199;-70
2021/01/01 08:53:19;;;;;;;25.70;20.07;;;2.90;99.90;;;;;;5052879;28;20901;-72
2021/01/01 08:55:59;;;;;;;25.07;19.50;;;3.00;99.90;;;;;;5052826;28;20418;-72
2021/01/01 08:58:25;;;;;;;35.33;20.70;;;2.90;99.90;;;;;;5052521;28;20874;-71
2021/01/01 09:00:50;;;;;;;31.23;20.70;;;3.00;99.90;;;;;;5052638;28;20429;-71
2021/01/01 09:03:17;;;;;;;25.63;19.83;;;3.00;99.90;;;;;;5053417;28;20413;-71
2021/01/01 09:05:44;;;;;;;29.93;19.30;;;3.00;99.90;;;;;;5052988;28;20181;-72
2021/01/01 09:08:15;;;;;;;29.47;19.40;;;3.00;99.90;;;;;;5052747;28;20487;-72
2021/01/01 09:10:45;;;;;;;30.07;20.83;;;3.10;99.90;;;;;;5052903;28;20460;-72
2021/01/01 09:13:28;;;;;;;28.90;19.50;;;3.10;99.90;;;;;;5053317;28;20882;-71
2021/01/01 09:16:01;;;;;;;33.90;20.13;;;3.20;99.90;;;;;;5053328;28;20401;-70
2021/01/01 09:18:28;;;;;;;26.17;19.33;;;3.20;99.90;;;;;;5052725;28;20485;-71
2021/01/01 09:21:09;;;;;;;26.80;19.30;;;3.20;99.90;;;;;;5052486;28;20437;-71
2021/01/01 09:23:34;;;;;;;29.10;20.93;;;3.30;99.90;;;;;;5052607;28;20401;-71
2021/01/01 09:26:00;;;;;;;26.27;20.47;;;3.30;99.90;;;;;;5052037;28;20424;-71
2021/01/01 09:28:25;;;;;;;31.10;20.90;;;3.30;99.90;;;;;;5052049;28;20216;-72
2021/01/01 09:30:51;;;;;;;27.77;20.07;;;3.30;99.90;;;;;;5051857;28;20670;-72
2021/01/01 09:33:16;;;;;;;23.93;17.37;;;3.30;99.90;;;;;;5051466;28;20562;-70
2021/01/01 09:35:42;;;;;;;27.07;19.37;;;3.30;99.90;;;;;;5051448;28;20213;-71
2021/01/01 09:38:07;;;;;;;23.63;18.23;;;3.30;99.90;;;;;;5051584;28;20246;-71
2021/01/01 09:40:36;;;;;;;24.73;17.90;;;3.40;99.90;;;;;;5053491;28;20663;-71
2021/01/01 09:43:03;;;;;;;29.00;18.97;;;3.40;99.90;;;;;;5053829;28;20183;-71
2021/01/01 09:45:29;;;;;;;25.80;18.43;;;3.40;99.90;;;;;;5052616;28;20417;-70
2021/01/01 09:47:55;;;;;;;23.03;19.30;;;3.40;99.90;;;;;;5051074;28;20696;-70
2021/01/01 09:50:21;;;;;;;35.10;19.57;;;3.40;99.90;;;;;;5051403;28;20460;-71
2021/01/01 09:52:46;;;;;;;27.17;18.20;;;3.30;99.90;;;;;;5051326;28;20163;-71
2021/01/01 09:55:12;;;;;;;24.03;17.67;;;3.40;99.90;;;;;;5053005;28;20171;-70
2021/01/01 09:57:38;;;;;;;28.00;18.23;;;3.30;99.90;;;;;;5053438;28;20306;-71
2021/01/01 10:00:11;;;;;;;25.90;20.20;;;3.40;99.90;;;;;;5054754;28;20179;-70
2021/01/01 10:02:38;;;;;;;28.00;18.20;;;3.40;99.90;;;;;;5056819;28;20463;-71
2021/01/01 10:05:04;;;;;;;26.23;18.00;;;3.40;99.90;;;;;;5055723;28;20416;-70
2021/01/01 10:07:30;;;;;;;28.97;21.03;;;3.50;99.90;;;;;;5052499;28;20474;-72
2021/01/01 10:09:57;;;;;;;26.30;20.10;;;3.50;99.90;;;;;;5045721;28;20783;-71
2021/01/01 10:12:22;;;;;;;25.40;17.60;;;3.50;99.90;;;;;;5054686;28;20535;-71
2021/01/01 10:14:50;;;;;;;28.57;20.07;;;3.60;99.90;;;;;;5054747;28;20811;-71
2021/01/01 10:17:16;;;;;;;29.50;19.20;;;3.70;99.90;;;;;;5054813;28;20172;-70
2021/01/01 10:19:42;;;;;;;30.13;18.57;;;3.60;99.90;;;;;;5054545;28;20432;-73
2021/01/01 10:22:08;;;;;;;27.67;19.27;;;3.50;99.90;;;;;;5054470;28;20421;-71
2021/01/01 10:24:34;;;;;;;29.20;19.60;;;3.60;99.90;;;;;;5054120;28;20171;-71
2021/01/01 10:27:00;;;;;;;30.00;19.00;;;3.50;99.90;;;;;;5054344;28;20405;-71
2021/01/01 10:29:26;;;;;;;30.33;20.03;;;3.50;99.90;;;;;;5054400;28;20791;-70
2021/01/01 10:31:51;;;;;;;25.13;19.20;;;3.50;99.90;;;;;;5036507;28;20602;-71
2021/01/01 10:34:18;;;;;;;29.13;18.87;;;3.70;99.90;;;;;;5054282;28;20572;-71
2021/01/01 10:36:43;;;;;;;24.10;17.30;;;3.60;99.90;;;;;;5054223;28;20520;-71
2021/01/01 10:39:09;;;;;;;30.60;19.50;;;3.50;99.90;;;;;;5054280;28;20408;-70
2021/01/01 10:41:37;;;;;;;23.20;17.70;;;3.50;99.90;;;;;;5054239;28;20178;-70
2021/01/01 10:44:04;;;;;;;28.83;17.90;;;3.60;99.90;;;;;;5054087;28;20225;-71
2021/01/01 10:46:29;;;;;;;24.37;17.90;;;3.60;99.90;;;;;;5053971;28;20821;-71
2021/01/01 10:48:55;;;;;;;27.80;19.60;;;3.60;99.90;;;;;;5054176;28;20413;-71
2021/01/01 10:51:25;;;;;;;27.03;18.67;;;3.50;99.90;;;;;;5054302;28;20541;-71
2021/01/01 10:53:51;;;;;;;29.83;21.00;;;3.70;99.90;;;;;;5054447;28;20650;-71
2021/01/01 10:56:24;;;;;;;31.97;19.73;;;3.60;99.90;;;;;;5053383;28;20412;-71
2021/01/01 10:58:50;;;;;;;23.90;17.90;;;3.70;99.90;;;;;;5045574;28;20429;-71
2021/01/01 11:01:23;;;;;;;23.63;19.03;;;3.50;99.90;;;;;;5053787;28;20429;-71
2021/01/01 11:03:51;;;;;;;28.33;19.00;;;3.50;99.90;;;;;;5053819;28;20779;-72
2021/01/01 11:06:17;;;;;;;24.47;18.63;;;3.40;99.90;;;;;;5033909;28;20493;-72
2021/01/01 11:08:44;;;;;;;28.07;19.67;;;3.50;99.90;;;;;;5033340;28;20521;-71
2021/01/01 11:11:11;;;;;;;31.77;20.90;;;3.60;99.90;;;;;;5033759;28;20862;-71
2021/01/01 11:13:42;;;;;;;25.73;18.40;;;3.80;99.90;;;;;;5044129;28;20467;-71
2021/01/01 12:25:04;;;;;;;23.00;15.70;;;3.70;99.90;;;;;;5052246;28;20914;-73
2021/01/01 12:27:35;;;;;;;24.10;15.77;;;3.70;99.90;;;;;;5052441;28;20172;-72
2021/01/01 12:30:02;;;;;;;27.87;15.43;;;3.70;99.90;;;;;;5052105;28;20453;-74
2021/01/01 12:32:28;;;;;;;23.50;17.03;;;3.80;99.90;;;;;;5051749;28;20503;-71
2021/01/01 12:34:53;;;;;;;19.10;16.37;;;3.80;99.90;;;;;;5051754;28;20773;-74
2021/01/01 12:37:18;;;;;;;21.87;16.60;;;3.80;99.90;;;;;;5053493;28;20171;-72
2021/01/01 12:39:44;;;;;;;30.17;18.63;;;3.80;99.90;;;;;;5052796;28;20648;-71
2021/01/01 12:42:09;;;;;;;21.43;15.40;;;4.00;99.90;;;;;;5052312;28;20175;-71
2021/01/01 12:44:35;;;;;;;24.23;16.77;;;3.90;99.90;;;;;;5051948;28;20179;-71
2021/01/01 12:47:01;;;;;;;23.70;17.00;;;3.70;99.90;;;;;;5052158;28;20182;-71
2021/01/01 12:49:26;;;;;;;20.87;14.20;;;3.90;99.90;;;;;;5051835;28;20201;-70
2021/01/01 12:51:52;;;;;;;22.83;16.90;;;3.90;99.90;;;;;;5051919;28;20667;-71
2021/01/01 12:54:17;;;;;;;24.37;16.63;;;3.80;99.90;;;;;;5051676;28;20171;-71
2021/01/01 12:56:43;;;;;;;20.90;14.10;;;3.90;99.90;;;;;;5051612;28;20179;-71
2021/01/01 12:59:08;;;;;;;21.30;16.30;;;3.90;99.90;;;;;;5051940;28;20178;-71
2021/01/01 13:01:34;;;;;;;20.20;14.67;;;3.90;99.90;;;;;;5051962;28;20167;-72
2021/01/01 13:04:00;;;;;;;21.57;15.97;;;3.90;99.90;;;;;;5052370;28;20610;-70
2021/01/01 13:06:26;;;;;;;22.73;14.57;;;3.70;99.90;;;;;;5052319;28;20844;-71
2021/01/01 13:08:52;;;;;;;19.73;13.20;;;3.90;99.90;;;;;;5052654;28;20510;-70
2021/01/01 13:11:18;;;;;;;23.60;15.40;;;3.90;99.90;;;;;;5053180;28;20457;-69
2021/01/01 13:13:43;;;;;;;20.10;16.10;;;3.90;99.90;;;;;;5052918;28;20416;-71
2021/01/01 13:16:09;;;;;;;16.13;13.60;;;3.90;99.90;;;;;;5052678;28;20191;-70
2021/01/01 13:18:36;;;;;;;17.87;13.00;;;3.80;99.90;;;;;;5052797;28;20163;-71
2021/01/01 13:21:06;;;;;;;20.43;15.00;;;3.90;99.90;;;;;;5052742;28;20595;-70
2021/01/01 13:23:32;;;;;;;21.70;13.60;;;3.90;99.90;;;;;;5052019;28;20401;-69
2021/01/01 13:25:59;;;;;;;18.50;12.90;;;3.80;99.90;;;;;;5051811;28;20413;-70
2021/01/01 13:28:25;;;;;;;19.60;13.70;;;3.70;99.90;;;;;;5051754;28;20409;-69
2021/01/01 13:30:50;;;;;;;18.60;14.37;;;3.70;99.90;;;;;;5052129;28;20797;-70
2021/01/01 13:33:15;;;;;;;17.60;13.37;;;3.60;99.90;;;;;;5056025;28;20178;-70
2021/01/01 13:35:44;;;;;;;16.73;13.60;;;3.70;99.90;;;;;;5056998;28;20257;-69
2021/01/01 13:38:10;;;;;;;19.40;14.63;;;3.70;99.90;;;;;;5056792;28;20178;-70
2021/01/01 13:40:36;;;;;;;20.93;13.83;;;3.70;99.90;;;;;;5056705;28;20429;-70
2021/01/01 13:43:01;;;;;;;20.60;14.60;;;3.90;99.90;;;;;;5056987;28;20171;-69
2021/01/01 13:45:27;;;;;;;16.17;13.27;;;3.90;99.90;;;;;;5057377;28;20448;-68
2021/01/01 13:47:52;;;;;;;20.97;14.00;;;3.70;99.90;;;;;;5056930;28;20266;-69